Terminal Aerodrome Forecast
Issued by NWS

Home | Current Version | Previous Version | Text Only | Print | Product List | Glossary On
Versions: 1 2 3 4 5 6 7 8 9 10 11 12
389
FTUS46 KPDT 010520
TAFYKM
TAF
KYKM 010520Z 0106/0206 28006KT P6SM FEW080
     FM011000 27006KT P6SM SKC
     FM011800 32007KT P6SM FEW150
     FM020400 VRB05KT P6SM SKC=

USA.gov is the U.S. government's official web portal to all federal, state and local government web resources and services.